createdAt,value
2022-11-06T00:00:00.000Z,5.13
2022-11-06T00:15:00.000Z,5.56
2022-11-06T00:30:00.000Z,5.48
2022-11-06T00:45:00.000Z,6.58
2022-11-06T01:00:00.000Z,6.32
2022-11-06T01:15:00.000Z,6.41
2022-11-06T01:30:00.000Z,6.79
2022-11-06T01:45:00.000Z,6.82
2022-11-06T02:00:00.000Z,7.47
2022-11-06T02:15:00.000Z,8.06
2022-11-06T02:45:00.000Z,7
2022-11-06T02:45:00.000Z,7.34
2022-11-06T03:00:00.000Z,7.54
2022-11-06T03:15:00.000Z,6.39
2022-11-06T03:45:00.000Z,5.33
2022-11-06T04:00:00.000Z,5.5
2022-11-06T04:00:00.000Z,5.11
2022-11-06T04:15:00.000Z,6.42
2022-11-06T04:30:00.000Z,6.08
2022-11-06T04:45:00.000Z,6
2022-11-06T05:00:00.000Z,5.46
2022-11-06T05:15:00.000Z,4.91
2022-11-06T05:30:00.000Z,5.51
2022-11-06T05:45:00.000Z,5.51
2022-11-06T06:00:00.000Z,5.27
2022-11-06T06:15:00.000Z,5.56
2022-11-06T06:30:00.000Z,6.89
2022-11-06T06:45:00.000Z,6.46
2022-11-06T07:00:00.000Z,5.52
2022-11-06T07:15:00.000Z,6.8
2022-11-06T07:30:00.000Z,5.86
2022-11-06T07:45:00.000Z,4.58
2022-11-06T08:00:00.000Z,3.85
2022-11-06T08:15:00.000Z,4.42
2022-11-06T08:30:00.000Z,4.86
2022-11-06T08:45:00.000Z,4.58
2022-11-06T09:00:00.000Z,3.13
2022-11-06T09:15:00.000Z,2.68
2022-11-06T09:30:00.000Z,2.98
2022-11-06T09:45:00.000Z,2.44
2022-11-06T10:00:00.000Z,1.19
2022-11-06T10:30:00.000Z,2
2022-11-06T10:30:00.000Z,1.25
2022-11-06T10:45:00.000Z,1.32
2022-11-06T11:00:00.000Z,1.28
2022-11-06T11:15:00.000Z,1.74
2022-11-06T11:30:00.000Z,1.18
2022-11-06T11:45:00.000Z,1.34
2022-11-06T12:00:00.000Z,1.21
2022-11-06T12:15:00.000Z,1.36
2022-11-06T12:30:00.000Z,1.31
2022-11-06T12:45:00.000Z,1.25
2022-11-06T13:00:00.000Z,1.87
2022-11-06T13:15:00.000Z,9.12
2022-11-06T13:30:00.000Z,13.34
2022-11-06T13:45:00.000Z,13.86
2022-11-06T14:00:00.000Z,14.93
2022-11-06T14:15:00.000Z,16.21
2022-11-06T14:30:00.000Z,17.69
2022-11-06T14:45:00.000Z,18.46
2022-11-06T15:00:00.000Z,18.86
2022-11-06T15:15:00.000Z,19.84
2022-11-06T15:30:00.000Z,38.92
2022-11-06T15:45:00.000Z,24.61
2022-11-06T16:00:00.000Z,25.01
2022-11-06T16:15:00.000Z,25.71
2022-11-06T16:30:00.000Z,30.6
2022-11-06T16:45:00.000Z,28.67
2022-11-06T17:00:00.000Z,27.69
2022-11-06T17:15:00.000Z,27.98
2022-11-06T17:30:00.000Z,19.28
2022-11-06T17:45:00.000Z,9.86
2022-11-06T18:00:00.000Z,8.56
2022-11-06T18:15:00.000Z,5.24
2022-11-06T18:30:00.000Z,5.26
2022-11-06T18:45:00.000Z,5.27
2022-11-06T19:00:00.000Z,5.15
2022-11-06T19:15:00.000Z,4.64
2022-11-06T19:30:00.000Z,4.78
2022-11-06T19:45:00.000Z,4.6
2022-11-06T20:00:00.000Z,3.53
2022-11-06T20:15:00.000Z,3.43
2022-11-06T20:30:00.000Z,9.24
2022-11-06T20:45:00.000Z,14.89
2022-11-06T21:00:00.000Z,17.28
2022-11-06T21:15:00.000Z,18.99
2022-11-06T21:30:00.000Z,18.96
2022-11-06T21:45:00.000Z,20.6
2022-11-06T22:00:00.000Z,18.88
2022-11-06T22:15:00.000Z,19.2
2022-11-06T22:30:00.000Z,14.11
2022-11-06T22:45:00.000Z,6.42
2022-11-06T23:00:00.000Z,2.94
2022-11-06T23:15:00.000Z,2.25
2022-11-06T23:30:00.000Z,1.73
2022-11-06T23:45:00.000Z,2.38
